Terminal Aerodrome Forecast
Issued by NWS

Home | Current Version | Previous Version | Text Only | Print | Product List | Glossary On
Versions: 1 2 3 4 5 6 7 8 9 10 11 12 13 14 15
000
FTUS46 KMTR 272333
TAFMRY
TAF
KMRY 272333Z 2800/2824 28006KT P6SM SKC
     FM280300 24005KT P6SM SKC
     FM280500 00000KT P6SM FEW250
     FM281700 30008KT P6SM SCT250=

USA.gov is the U.S. government's official web portal to all federal, state and local government web resources and services.